Time;durP1;ratioP1;P1;durP2;ratioP2;P2;SDS_P1;SDS_P2;PMS_P1;PMS_P2;Temp;Humidity;BMP_temperature;BMP_pressure;BME280_temperature;BME280_humidity;BME280_pressure;Samples;Min_cycle;Max_cycle;Signal;HPM_P1;HPM_P2
2023/10/10 00:00:27;;;;;;;3.42;1.90;;;16.60;90.80;;;;;;4698347;30;20101;-78
2023/10/10 00:02:55;;;;;;;2.65;1.80;;;16.50;90.80;;;;;;4698903;30;20058;-78
2023/10/10 00:05:33;;;;;;;2.78;1.50;;;16.50;90.80;;;;;;4682376;30;20052;-78
2023/10/10 00:08:01;;;;;;;4.45;1.88;;;16.50;90.80;;;;;;4698135;30;20022;-78
2023/10/10 00:10:30;;;;;;;1.75;1.48;;;16.50;90.80;;;;;;4679549;30;20046;-78
2023/10/10 00:12:57;;;;;;;4.45;2.00;;;16.40;90.80;;;;;;4675929;30;20062;-78
2023/10/10 00:15:24;;;;;;;2.78;1.73;;;16.50;90.80;;;;;;4669623;30;20066;-78
2023/10/10 00:17:50;;;;;;;2.53;1.65;;;16.40;90.80;;;;;;4674942;30;20049;-77
2023/10/10 00:20:22;;;;;;;4.35;2.30;;;16.40;90.80;;;;;;4736297;30;20093;-77
2023/10/10 00:22:49;;;;;;;2.30;1.55;;;16.40;90.80;;;;;;4723433;30;20114;-77
2023/10/10 00:25:17;;;;;;;2.10;1.58;;;16.40;90.80;;;;;;4708124;30;20135;-78
2023/10/10 00:27:43;;;;;;;3.50;2.20;;;16.40;90.80;;;;;;4744463;30;20084;-78
2023/10/10 00:30:12;;;;;;;4.20;2.28;;;16.40;90.90;;;;;;4722943;30;20037;-78
2023/10/10 00:32:45;;;;;;;2.90;1.92;;;16.30;90.90;;;;;;4718884;30;20056;-79
2023/10/10 00:35:17;;;;;;;4.22;2.38;;;16.20;90.90;;;;;;4719175;30;20041;-79
2023/10/10 00:37:45;;;;;;;4.40;2.30;;;16.30;90.90;;;;;;4722562;30;20072;-80
2023/10/10 00:40:29;;;;;;;4.10;2.13;;;16.20;90.90;;;;;;4703390;30;20054;-80
2023/10/10 00:42:58;;;;;;;2.63;1.83;;;16.20;90.90;;;;;;4668217;30;20049;-80
2023/10/10 00:45:28;;;;;;;3.50;2.10;;;16.20;90.90;;;;;;4649534;30;20054;-79
2023/10/10 00:47:54;;;;;;;3.03;2.13;;;16.20;91.00;;;;;;4664266;30;20094;-78
2023/10/10 00:50:25;;;;;;;2.10;1.55;;;16.10;91.00;;;;;;4649569;30;20538;-79
2023/10/10 00:52:55;;;;;;;2.83;1.85;;;16.10;91.00;;;;;;4664874;30;20062;-78
2023/10/10 00:55:24;;;;;;;4.07;2.50;;;16.10;91.00;;;;;;4667475;30;20073;-78
2023/10/10 00:57:54;;;;;;;3.97;2.30;;;16.00;91.00;;;;;;4669339;30;20055;-76
2023/10/10 01:00:24;;;;;;;4.22;2.65;;;16.00;91.00;;;;;;4663114;30;21390;-79
2023/10/10 01:02:56;;;;;;;3.08;1.90;;;16.00;91.00;;;;;;4684877;30;20041;-78
2023/10/10 01:05:39;;;;;;;2.25;1.58;;;15.90;91.00;;;;;;4725063;30;20065;-79
2023/10/10 01:08:07;;;;;;;2.33;1.50;;;15.90;91.00;;;;;;4707179;30;20556;-79
2023/10/10 01:10:43;;;;;;;3.08;1.95;;;15.80;91.00;;;;;;4707265;30;20049;-79
2023/10/10 01:13:10;;;;;;;3.65;2.13;;;15.90;91.00;;;;;;4721798;30;20046;-76
2023/10/10 01:15:37;;;;;;;4.30;2.42;;;15.80;91.00;;;;;;4700811;30;20057;-77
2023/10/10 01:18:13;;;;;;;3.22;2.22;;;15.80;91.00;;;;;;4700936;30;20445;-76
2023/10/10 01:20:46;;;;;;;3.85;2.22;;;15.80;91.10;;;;;;4701314;30;20107;-77
2023/10/10 01:23:15;;;;;;;4.35;2.10;;;15.80;91.10;;;;;;4715733;30;20074;-76
2023/10/10 01:25:44;;;;;;;4.80;2.47;;;15.80;91.10;;;;;;4715997;30;20041;-76
2023/10/10 01:30:58;;;;;;;2.90;1.65;;;15.60;91.00;;;;;;4715083;30;20075;-77
2023/10/10 01:33:36;;;;;;;2.03;1.58;;;15.70;91.10;;;;;;4686600;30;20139;-76
2023/10/10 01:36:11;;;;;;;3.60;2.38;;;15.70;91.10;;;;;;4715831;30;20048;-76
2023/10/10 01:39:07;;;;;;;3.95;2.38;;;15.70;91.10;;;;;;4733671;30;20462;-76
2023/10/10 01:41:38;;;;;;;4.47;2.58;;;15.60;91.10;;;;;;4722801;30;20113;-76
2023/10/10 01:44:10;;;;;;;3.00;2.13;;;15.60;91.10;;;;;;4747163;30;20059;-76
2023/10/10 01:46:36;;;;;;;2.70;1.83;;;15.50;91.10;;;;;;4719128;30;20107;-77
2023/10/10 01:49:02;;;;;;;3.55;2.30;;;15.60;91.10;;;;;;4732737;30;20484;-77
2023/10/10 01:51:33;;;;;;;3.40;2.05;;;15.60;91.20;;;;;;4747119;30;20067;-77
2023/10/10 01:54:00;;;;;;;4.00;2.47;;;15.50;91.20;;;;;;4714484;30;20505;-76
2023/10/10 01:56:27;;;;;;;4.75;2.50;;;15.40;91.20;;;;;;4714469;30;20053;-76
2023/10/10 01:58:54;;;;;;;3.22;2.35;;;15.40;91.20;;;;;;4685855;30;20049;-76
2023/10/10 02:01:23;;;;;;;2.95;1.83;;;15.40;91.20;;;;;;4714666;30;20156;-77
2023/10/10 02:03:51;;;;;;;3.10;2.08;;;15.40;91.20;;;;;;4686166;30;20049;-77
2023/10/10 02:06:26;;;;;;;3.28;1.80;;;15.30;91.20;;;;;;4700482;30;20045;-77
2023/10/10 02:08:52;;;;;;;4.10;2.38;;;15.30;91.20;;;;;;4701168;30;20152;-77
2023/10/10 02:11:21;;;;;;;3.90;2.40;;;15.30;91.30;;;;;;4714567;30;20127;-76
2023/10/10 02:13:48;;;;;;;2.70;1.77;;;15.20;91.20;;;;;;4700344;30;20136;-76
2023/10/10 02:16:17;;;;;;;4.28;2.38;;;15.20;91.20;;;;;;4700051;30;20147;-76
2023/10/10 02:18:50;;;;;;;4.22;2.50;;;15.20;91.30;;;;;;4685801;30;20044;-76
2023/10/10 02:21:31;;;;;;;2.78;1.80;;;15.20;91.30;;;;;;4686995;30;20394;-76
2023/10/10 02:24:13;;;;;;;2.97;1.80;;;15.10;91.20;;;;;;4731091;30;20495;-76
2023/10/10 02:26:39;;;;;;;3.22;2.35;;;15.10;91.20;;;;;;4737548;30;20060;-76
2023/10/10 02:29:48;;;;;;;5.10;2.42;;;15.10;91.20;;;;;;4732380;30;20048;-76
2023/10/10 02:31:56;;;;;;;4.45;2.75;;;15.10;91.20;;;;;;4732574;30;20500;-77
2023/10/10 02:34:22;;;;;;;3.72;2.47;;;15.00;91.20;;;;;;4718033;30;20060;-76
2023/10/10 02:37:10;;;;;;;3.33;2.10;;;15.00;91.20;;;;;;4747106;30;20052;-77
2023/10/10 02:39:41;;;;;;;2.90;1.73;;;15.10;91.30;;;;;;4732452;30;20059;-76
2023/10/10 02:42:13;;;;;;;2.83;1.92;;;15.00;91.20;;;;;;4733817;30;20639;-76
2023/10/10 02:44:46;;;;;;;3.58;2.25;;;15.00;91.20;;;;;;4733593;30;20515;-76
2023/10/10 02:47:13;;;;;;;4.00;2.17;;;14.90;91.20;;;;;;4746931;30;20052;-76
2023/10/10 02:49:42;;;;;;;5.80;3.00;;;14.90;91.20;;;;;;4733653;30;20067;-76
2023/10/10 02:52:08;;;;;;;3.25;2.03;;;14.90;91.30;;;;;;4733459;30;20047;-76
2023/10/10 02:54:43;;;;;;;3.95;2.38;;;14.90;91.30;;;;;;4746773;30;20512;-76
2023/10/10 02:57:28;;;;;;;3.13;1.80;;;14.90;91.30;;;;;;4730765;30;20131;-76
2023/10/10 03:00:15;;;;;;;3.40;2.35;;;14.80;91.20;;;;;;4746449;30;20421;-76
2023/10/10 03:08:12;;;;;;;3.80;2.47;;;14.80;91.30;;;;;;4733130;30;20048;-76
2023/10/10 03:10:41;;;;;;;3.97;2.55;;;14.70;91.30;;;;;;4718568;30;20099;-76
2023/10/10 03:13:27;;;;;;;3.80;2.47;;;14.70;91.30;;;;;;4733292;30;20043;-76
2023/10/10 03:15:55;;;;;;;2.63;1.77;;;14.70;91.30;;;;;;4719991;30;20114;-76
2023/10/10 03:18:30;;;;;;;3.08;1.88;;;14.70;91.30;;;;;;4746438;30;20065;-76
2023/10/10 03:26:19;;;;;;;4.05;2.50;;;14.80;91.30;;;;;;4732243;30;20045;-76
2023/10/10 03:28:47;;;;;;;;;;;14.80;91.20;;;;;;4733538;30;20152;-76
2023/10/10 03:37:03;;;;;;;3.53;1.88;;;15.00;91.00;;;;;;4749286;30;20061;-76
2023/10/10 03:39:41;;;;;;;3.63;2.17;;;15.00;91.00;;;;;;4748957;30;20056;-76
2023/10/10 05:23:47;;;;;;;3.92;2.28;;;15.20;91.50;;;;;;4734581;30;20056;-76
2023/10/10 05:26:18;;;;;;;4.05;2.58;;;15.30;91.50;;;;;;4733986;30;20122;-77
2023/10/10 05:28:45;;;;;;;;;;;15.30;91.50;;;;;;4732837;30;20045;-76
2023/10/10 05:31:12;;;;;;;5.15;2.63;;;15.30;91.50;;;;;;4748258;30;19943;-76
2023/10/10 05:33:38;;;;;;;5.25;2.90;;;15.30;91.50;;;;;;4733376;30;20107;-76
2023/10/10 05:36:06;;;;;;;5.25;2.83;;;15.30;91.50;;;;;;4718911;30;20049;-76
2023/10/10 05:38:39;;;;;;;5.65;3.40;;;15.30;91.50;;;;;;4734361;30;20047;-76
2023/10/10 05:41:06;;;;;;;4.82;2.80;;;15.30;91.50;;;;;;4733923;30;20047;-76
2023/10/10 05:43:35;;;;;;;5.65;2.78;;;15.20;91.50;;;;;;4734196;30;20037;-76
2023/10/10 05:46:03;;;;;;;4.57;2.53;;;15.30;91.60;;;;;;4719039;30;20192;-76
2023/10/10 05:48:31;;;;;;;5.03;2.90;;;15.30;91.60;;;;;;4747820;30;20063;-76
2023/10/10 05:50:58;;;;;;;5.55;3.25;;;15.30;91.60;;;;;;4733088;30;20052;-76
2023/10/10 05:53:24;;;;;;;4.72;3.00;;;15.30;91.60;;;;;;4733616;30;20053;-75
2023/10/10 05:55:54;;;;;;;5.40;3.17;;;15.30;91.70;;;;;;4734360;30;20049;-75
2023/10/10 05:58:20;;;;;;;5.97;3.13;;;15.30;91.70;;;;;;4733012;30;20045;-76
2023/10/10 06:00:48;;;;;;;6.25;3.00;;;15.20;91.70;;;;;;4733188;30;20041;-76
2023/10/10 06:03:16;;;;;;;6.00;3.10;;;15.20;91.70;;;;;;4719113;30;20131;-76
2023/10/10 06:05:44;;;;;;;4.88;2.70;;;15.20;91.70;;;;;;4733124;30;20053;-76
2023/10/10 06:08:10;;;;;;;5.13;2.88;;;15.30;91.80;;;;;;4734509;30;20056;-76
2023/10/10 06:10:36;;;;;;;4.93;2.72;;;15.30;91.80;;;;;;4718597;30;20068;-75
2023/10/10 06:13:04;;;;;;;6.38;3.45;;;15.20;91.80;;;;;;4734507;30;20053;-75
2023/10/10 06:15:33;;;;;;;5.53;2.67;;;15.30;91.80;;;;;;4734582;30;20041;-76
2023/10/10 06:18:08;;;;;;;6.75;3.78;;;15.20;91.80;;;;;;4732687;30;20095;-75
2023/10/10 06:20:41;;;;;;;6.70;3.63;;;15.20;91.80;;;;;;4719947;30;20064;-76
2023/10/10 06:23:08;;;;;;;6.13;3.60;;;15.20;91.90;;;;;;4733908;30;20064;-76
2023/10/10 06:25:36;;;;;;;6.07;3.55;;;15.10;91.80;;;;;;4718121;30;20135;-76
2023/10/10 06:28:05;;;;;;;5.38;2.95;;;15.10;91.90;;;;;;4745784;30;20033;-76
2023/10/10 06:30:36;;;;;;;5.45;3.10;;;15.20;91.90;;;;;;4732795;30;20097;-76
2023/10/10 06:33:14;;;;;;;;;;;15.20;91.90;;;;;;4734023;30;20052;-76
2023/10/10 06:35:40;;;;;;;4.85;2.70;;;15.10;91.80;;;;;;4749059;30;19922;-76
2023/10/10 06:38:10;;;;;;;4.82;2.92;;;15.10;91.80;;;;;;4749858;30;20047;-76
2023/10/10 06:40:52;;;;;;;6.10;3.50;;;15.10;91.80;;;;;;4735213;30;20059;-76
2023/10/10 06:43:20;;;;;;;5.22;3.38;;;15.10;91.80;;;;;;4736644;30;20527;-75
2023/10/10 06:45:52;;;;;;;6.90;3.55;;;15.10;91.80;;;;;;4735118;30;20074;-77
2023/10/10 06:48:21;;;;;;;5.47;3.15;;;15.10;91.80;;;;;;4721260;30;20089;-77
2023/10/10 06:50:50;;;;;;;6.32;3.53;;;15.10;91.80;;;;;;4749475;30;20189;-78
2023/10/10 06:56:43;;;;;;;5.90;3.42;;;15.10;91.80;;;;;;4735750;30;20149;-79
2023/10/10 06:59:16;;;;;;;5.40;3.22;;;15.10;91.80;;;;;;4736593;30;20040;-79
2023/10/10 07:01:45;;;;;;;5.65;3.03;;;15.20;91.80;;;;;;4720532;30;20466;-77
2023/10/10 07:04:16;;;;;;;6.43;3.72;;;15.20;91.80;;;;;;4722360;30;20040;-80
2023/10/10 07:06:44;;;;;;;7.07;4.10;;;15.30;91.80;;;;;;4718262;30;20052;-76
2023/10/10 07:09:27;;;;;;;6.05;3.33;;;15.20;91.80;;;;;;4732153;30;20058;-77
2023/10/10 07:11:54;;;;;;;5.00;3.30;;;15.20;91.80;;;;;;4719880;30;20157;-76
2023/10/10 07:14:20;;;;;;;6.55;3.72;;;15.20;91.80;;;;;;4734380;30;20052;-78
2023/10/10 07:16:46;;;;;;;6.80;4.20;;;15.20;91.80;;;;;;4719082;30;20060;-76
2023/10/10 07:19:19;;;;;;;6.80;3.33;;;15.20;91.80;;;;;;4705214;30;20055;-77
2023/10/10 07:21:50;;;;;;;5.03;3.08;;;15.20;91.80;;;;;;4713768;30;20060;-76
2023/10/10 07:24:16;;;;;;;5.25;3.35;;;15.20;91.80;;;;;;4717409;30;20048;-76
2023/10/10 07:26:44;;;;;;;4.97;2.90;;;15.20;91.80;;;;;;4733190;30;20045;-78
2023/10/10 07:29:27;;;;;;;7.93;4.05;;;15.20;91.80;;;;;;4717622;30;20052;-78
2023/10/10 07:32:04;;;;;;;5.03;2.90;;;15.30;91.80;;;;;;4735529;30;20053;-76
2023/10/10 07:34:35;;;;;;;6.47;3.60;;;15.30;91.70;;;;;;4713025;30;20159;-78
2023/10/10 07:37:08;;;;;;;5.03;3.38;;;15.30;91.70;;;;;;4723112;30;20057;-76
2023/10/10 07:39:55;;;;;;;5.43;3.50;;;15.30;91.90;;;;;;4735343;30;20120;-77
2023/10/10 07:42:27;;;;;;;4.55;3.05;;;15.30;91.60;;;;;;4732291;30;20132;-76
2023/10/10 07:44:54;;;;;;;3.95;2.53;;;15.30;91.60;;;;;;4733204;30;20045;-77
2023/10/10 07:47:25;;;;;;;6.20;3.58;;;15.30;91.60;;;;;;4749691;30;20067;-77
2023/10/10 07:49:52;;;;;;;;;;;15.30;91.60;;;;;;4739297;30;20049;-76
2023/10/10 07:52:20;;;;;;;4.82;3.13;;;15.40;91.60;;;;;;4736266;30;20382;-76
2023/10/10 07:54:51;;;;;;;4.70;2.47;;;15.30;91.50;;;;;;4706120;30;20032;-76
2023/10/10 07:57:18;;;;;;;5.22;3.13;;;15.40;91.50;;;;;;4720878;30;20056;-75
2023/10/10 07:59:44;;;;;;;5.45;2.88;;;15.30;91.50;;;;;;4733782;30;20037;-76
2023/10/10 08:02:31;;;;;;;4.60;2.90;;;15.40;91.50;;;;;;4737256;30;20374;-75
2023/10/10 08:05:01;;;;;;;4.93;3.05;;;15.50;91.50;;;;;;4741228;30;20044;-75
2023/10/10 08:07:27;;;;;;;5.20;3.35;;;15.40;91.50;;;;;;4738371;30;20049;-75
2023/10/10 08:12:38;;;;;;;5.63;3.13;;;15.50;91.40;;;;;;4737094;30;20088;-76
2023/10/10 08:17:53;;;;;;;4.05;2.67;;;15.60;91.40;;;;;;4736132;30;20060;-75
2023/10/10 08:21:08;;;;;;;5.45;2.90;;;15.60;91.30;;;;;;4735913;30;20071;-75
2023/10/10 08:23:06;;;;;;;4.82;3.10;;;15.60;91.30;;;;;;4736320;30;20049;-76
2023/10/10 08:25:33;;;;;;;4.88;2.92;;;15.70;91.30;;;;;;4735018;30;20045;-78
2023/10/10 08:28:00;;;;;;;5.22;3.22;;;15.70;91.20;;;;;;4718825;30;20037;-78
2023/10/10 08:30:26;;;;;;;5.25;3.33;;;15.80;91.20;;;;;;4733776;30;20044;-78
2023/10/10 08:33:01;;;;;;;3.60;2.40;;;15.80;91.10;;;;;;4733646;30;20068;-77
2023/10/10 08:35:29;;;;;;;5.35;3.30;;;15.80;91.10;;;;;;4733759;30;20121;-76
2023/10/10 08:37:56;;;;;;;4.55;3.05;;;15.90;91.10;;;;;;4733360;30;20154;-77
2023/10/10 08:40:23;;;;;;;4.88;3.25;;;16.00;91.00;;;;;;4733913;30;20625;-78
2023/10/10 08:42:50;;;;;;;5.90;3.42;;;15.90;91.00;;;;;;4733655;30;20119;-75
2023/10/10 08:45:25;;;;;;;4.95;2.85;;;16.00;91.00;;;;;;4733308;30;20039;-76
2023/10/10 08:47:58;;;;;;;4.72;2.45;;;16.00;90.90;;;;;;4733448;30;20558;-79
2023/10/10 08:50:25;;;;;;;4.82;2.78;;;16.10;90.90;;;;;;4735361;30;20089;-76
2023/10/10 08:52:52;;;;;;;5.38;3.10;;;16.10;90.90;;;;;;4738749;30;20051;-77
2023/10/10 08:55:26;;;;;;;5.60;3.60;;;16.10;90.80;;;;;;4738849;30;20052;-77
2023/10/10 08:57:55;;;;;;;5.35;3.88;;;16.10;90.80;;;;;;4732628;30;20052;-78
2023/10/10 09:00:27;;;;;;;5.60;3.60;;;16.10;90.70;;;;;;4719609;30;20051;-78
2023/10/10 09:02:55;;;;;;;4.30;2.83;;;16.10;90.70;;;;;;4738270;30;20055;-77
2023/10/10 09:05:23;;;;;;;5.07;2.90;;;16.20;90.70;;;;;;4758214;30;20099;-78
2023/10/10 09:07:53;;;;;;;5.65;3.40;;;16.30;90.60;;;;;;4764675;30;20075;-78
2023/10/10 09:10:28;;;;;;;5.20;3.25;;;16.20;90.60;;;;;;4740449;30;20118;-76
2023/10/10 09:12:58;;;;;;;6.65;3.08;;;16.30;90.60;;;;;;4736109;30;20045;-77
2023/10/10 09:15:27;;;;;;;3.38;2.42;;;16.40;90.50;;;;;;4761000;30;20072;-78
2023/10/10 09:18:17;;;;;;;4.82;2.88;;;16.40;90.50;;;;;;4723736;30;20049;-79
2023/10/10 09:20:45;;;;;;;3.35;2.30;;;16.40;90.40;;;;;;4754269;30;20056;-77
2023/10/10 09:23:31;;;;;;;5.15;2.72;;;16.50;90.40;;;;;;4738566;30;20040;-76
2023/10/10 09:26:29;;;;;;;4.43;2.83;;;16.40;90.40;;;;;;4753983;30;20098;-76
2023/10/10 09:29:00;;;;;;;5.95;2.95;;;16.50;90.40;;;;;;4765519;30;20052;-78
2023/10/10 09:31:32;;;;;;;;;;;16.50;90.30;;;;;;4754111;30;20055;-80
2023/10/10 09:34:03;;;;;;;4.25;2.60;;;16.60;90.30;;;;;;4723317;30;20004;-77
2023/10/10 09:36:38;;;;;;;;;;;16.60;90.20;;;;;;4727085;30;20810;-79
2023/10/10 09:39:26;;;;;;;4.80;2.33;;;16.60;90.20;;;;;;4749920;30;20013;-78
2023/10/10 09:42:06;;;;;;;3.78;2.28;;;16.70;90.10;;;;;;4750705;30;20568;-77
2023/10/10 09:47:40;;;;;;;4.68;2.50;;;16.80;90.10;;;;;;4754886;30;20527;-79
2023/10/10 09:52:53;;;;;;;4.60;2.92;;;16.80;90.00;;;;;;4733186;30;20136;-78
2023/10/10 09:58:16;;;;;;;4.70;2.92;;;16.90;90.20;;;;;;4708043;30;20136;-81
2023/10/10 10:00:47;;;;;;;4.78;2.78;;;16.90;89.90;;;;;;4748885;30;20080;-79
2023/10/10 10:03:31;;;;;;;5.43;3.47;;;17.00;89.80;;;;;;4733797;30;20071;-76
2023/10/10 10:06:35;;;;;;;7.07;4.20;;;17.10;89.80;;;;;;4724779;30;20053;-80
2023/10/10 10:09:32;;;;;;;6.03;3.30;;;17.20;89.70;;;;;;4732453;30;20040;-77
2023/10/10 10:12:30;;;;;;;4.30;2.75;;;17.00;89.40;;;;;;4747935;30;20033;-77
2023/10/10 10:15:40;;;;;;;4.05;2.45;;;17.20;89.40;;;;;;4720643;30;20040;-76
2023/10/10 10:18:13;;;;;;;3.67;2.50;;;17.30;89.30;;;;;;4734693;30;20132;-77
2023/10/10 10:20:47;;;;;;;4.07;2.28;;;17.30;89.20;;;;;;4733404;30;20566;-77
2023/10/10 10:23:26;;;;;;;5.53;2.90;;;17.30;89.20;;;;;;4723362;30;20024;-77
2023/10/10 10:26:04;;;;;;;5.60;2.95;;;17.40;89.10;;;;;;4718969;30;20037;-78
2023/10/10 10:28:36;;;;;;;5.70;3.78;;;17.50;89.10;;;;;;4717166;30;20041;-76
2023/10/10 10:31:08;;;;;;;4.78;3.22;;;17.50;88.90;;;;;;4734294;30;20044;-76
2023/10/10 10:33:52;;;;;;;3.65;2.42;;;17.60;88.70;;;;;;4732678;30;20037;-78
2023/10/10 10:36:18;;;;;;;5.75;3.05;;;17.60;88.50;;;;;;4732834;30;20053;-77
2023/10/10 10:39:17;;;;;;;5.72;3.35;;;17.70;88.50;;;;;;4732685;30;20496;-77
2023/10/10 10:44:12;;;;;;;6.25;3.67;;;17.90;88.30;;;;;;4719790;30;20041;-78
2023/10/10 10:46:40;;;;;;;5.03;3.40;;;17.90;88.10;;;;;;4718493;30;20045;-77
2023/10/10 10:49:12;;;;;;;5.57;3.42;;;17.90;87.90;;;;;;4733892;30;20045;-77
2023/10/10 10:51:47;;;;;;;4.78;2.80;;;18.00;87.90;;;;;;4732758;30;20053;-75
2023/10/10 10:54:35;;;;;;;4.20;2.58;;;18.00;87.70;;;;;;4704025;30;20554;-77
2023/10/10 10:57:02;;;;;;;5.15;2.95;;;18.10;87.60;;;;;;4733450;30;20139;-77
2023/10/10 10:59:35;;;;;;;3.75;2.20;;;18.20;87.60;;;;;;4733541;30;20101;-77
2023/10/10 11:02:13;;;;;;;3.97;2.45;;;18.30;87.40;;;;;;4733637;30;20052;-77
2023/10/10 11:04:42;;;;;;;5.55;3.08;;;18.30;87.40;;;;;;4735167;30;20041;-76
2023/10/10 11:07:16;;;;;;;4.75;2.70;;;18.40;87.30;;;;;;4733142;30;20047;-75
2023/10/10 11:09:52;;;;;;;4.55;2.90;;;18.40;87.20;;;;;;4719394;30;20041;-80
2023/10/10 11:12:31;;;;;;;5.25;2.95;;;18.40;87.20;;;;;;4739138;30;20049;-80
2023/10/10 11:14:58;;;;;;;4.43;2.70;;;18.50;87.10;;;;;;4732193;30;20045;-81
2023/10/10 11:17:24;;;;;;;5.38;3.03;;;18.50;87.00;;;;;;4717794;30;20198;-79
2023/10/10 11:19:54;;;;;;;4.63;2.58;;;18.60;86.80;;;;;;4722005;30;20048;-79
2023/10/10 11:25:11;;;;;;;4.25;2.53;;;18.70;86.60;;;;;;4732160;30;20098;-77
2023/10/10 11:27:45;;;;;;;5.10;3.00;;;18.80;86.60;;;;;;4727659;30;20041;-78
2023/10/10 11:34:10;;;;;;;5.00;2.40;;;19.00;86.30;;;;;;4714139;30;20082;-78
2023/10/10 11:36:37;;;;;;;5.65;2.88;;;19.00;86.00;;;;;;4718177;30;20086;-77
2023/10/10 11:42:38;;;;;;;2.97;1.92;;;19.20;85.60;;;;;;4691357;30;20076;-82
2023/10/10 11:45:09;;;;;;;5.35;2.42;;;19.30;85.50;;;;;;4699158;30;20053;-84
2023/10/10 11:47:42;;;;;;;5.32;2.85;;;19.40;85.30;;;;;;4713990;30;20053;-77
2023/10/10 11:50:11;;;;;;;3.80;2.20;;;19.50;85.10;;;;;;4713892;30;20382;-77
2023/10/10 11:55:41;;;;;;;4.57;2.38;;;19.80;84.60;;;;;;4702513;30;20468;-76
2023/10/10 12:01:47;;;;;;;4.65;2.13;;;19.90;84.40;;;;;;4710987;30;20466;-80
2023/10/10 12:04:06;;;;;;;4.70;2.40;;;19.90;84.30;;;;;;4708385;30;20524;-78
2023/10/10 12:06:31;;;;;;;4.50;2.38;;;20.10;84.20;;;;;;4702886;30;20058;-78
2023/10/10 12:09:14;;;;;;;4.45;2.65;;;20.20;84.10;;;;;;4679556;30;20413;-80
2023/10/10 12:11:48;;;;;;;4.28;2.72;;;20.10;83.70;;;;;;4697557;30;20056;-84
2023/10/10 12:14:19;;;;;;;5.00;2.60;;;20.30;83.60;;;;;;4697420;30;20045;-79
2023/10/10 12:17:09;;;;;;;;;;;20.40;83.50;;;;;;4682058;30;20061;-83
2023/10/10 12:19:36;;;;;;;3.00;1.95;;;20.50;83.40;;;;;;4696656;30;19919;-78
2023/10/10 12:22:10;;;;;;;4.93;2.72;;;20.60;83.40;;;;;;4695897;30;20046;-75
2023/10/10 12:24:39;;;;;;;4.22;2.53;;;20.70;83.20;;;;;;4693025;30;20041;-75
2023/10/10 12:27:08;;;;;;;6.15;2.72;;;20.60;83.00;;;;;;4693208;30;20053;-75
2023/10/10 12:29:40;;;;;;;4.40;2.45;;;20.60;83.10;;;;;;4695857;30;20145;-75
2023/10/10 12:34:47;;;;;;;2.90;2.00;;;20.50;83.30;;;;;;4686360;30;20125;-74
2023/10/10 12:37:15;;;;;;;4.47;2.50;;;20.50;83.40;;;;;;4705575;30;20198;-75
2023/10/10 12:39:42;;;;;;;3.78;2.10;;;20.50;83.40;;;;;;4735360;30;20045;-75
2023/10/10 12:42:08;;;;;;;3.85;2.30;;;20.50;83.60;;;;;;4735357;30;20067;-75
2023/10/10 12:44:34;;;;;;;3.15;1.95;;;20.60;83.50;;;;;;4734206;30;20550;-74
2023/10/10 12:47:06;;;;;;;4.00;2.30;;;20.70;83.30;;;;;;4734694;30;20058;-74
2023/10/10 12:49:36;;;;;;;4.15;2.35;;;20.80;83.10;;;;;;4749105;30;20095;-74
2023/10/10 12:52:11;;;;;;;3.80;2.22;;;20.80;83.00;;;;;;4734245;30;20052;-74
2023/10/10 12:54:38;;;;;;;3.35;1.85;;;20.90;82.90;;;;;;4735346;30;20055;-74
2023/10/10 12:57:13;;;;;;;4.50;2.40;;;21.00;82.90;;;;;;4719375;30;20493;-75
2023/10/10 12:59:39;;;;;;;3.88;2.00;;;21.10;82.60;;;;;;4735051;30;20190;-74
2023/10/10 13:02:08;;;;;;;4.57;2.30;;;21.20;82.20;;;;;;4732109;30;20148;-75
2023/10/10 13:04:38;;;;;;;2.25;1.55;;;21.20;82.00;;;;;;4733799;30;20110;-74
2023/10/10 13:07:34;;;;;;;4.50;1.95;;;21.20;81.90;;;;;;4733741;30;20041;-79
2023/10/10 13:10:10;;;;;;;2.70;1.63;;;21.30;81.90;;;;;;4718014;30;20501;-78
2023/10/10 13:12:51;;;;;;;3.15;2.00;;;21.40;81.80;;;;;;4719203;30;20045;-78
2023/10/10 13:15:18;;;;;;;2.70;1.73;;;21.40;81.60;;;;;;4721699;30;20051;-77
2023/10/10 13:17:50;;;;;;;2.63;1.70;;;21.30;81.70;;;;;;4722761;30;20105;-79
2023/10/10 13:20:17;;;;;;;3.50;1.80;;;21.50;81.70;;;;;;4721892;30;20128;-76
2023/10/10 13:22:43;;;;;;;3.22;1.80;;;21.40;81.60;;;;;;4752995;30;20044;-77
2023/10/10 13:25:14;;;;;;;4.28;2.10;;;21.50;81.50;;;;;;4736736;30;20047;-79
2023/10/10 13:27:40;;;;;;;2.80;1.88;;;21.60;81.30;;;;;;4702901;30;20048;-77
2023/10/10 13:30:06;;;;;;;4.55;2.22;;;21.70;81.10;;;;;;4720130;30;20136;-77
2023/10/10 13:32:47;;;;;;;3.95;2.13;;;21.70;80.80;;;;;;4744380;30;20049;-78
2023/10/10 13:35:13;;;;;;;2.83;1.80;;;21.70;80.70;;;;;;4713652;30;20053;-77
2023/10/10 13:37:41;;;;;;;3.33;1.90;;;21.70;80.80;;;;;;4738380;30;20101;-77
2023/10/10 13:40:48;;;;;;;3.42;1.80;;;21.80;80.90;;;;;;4719624;30;20064;-78
2023/10/10 13:43:17;;;;;;;4.57;2.20;;;21.70;80.70;;;;;;4706360;30;20106;-79
2023/10/10 13:46:05;;;;;;;2.47;1.80;;;21.80;80.60;;;;;;4741844;30;20057;-79
2023/10/10 13:52:11;;;;;;;2.03;1.40;;;21.90;80.60;;;;;;4694856;30;20084;-77
2023/10/10 13:54:57;;;;;;;2.28;1.58;;;21.80;80.50;;;;;;4693949;30;20100;-79
2023/10/10 13:57:28;;;;;;;3.72;2.13;;;21.80;80.40;;;;;;4674974;30;20058;-78
2023/10/10 14:07:27;;;;;;;4.03;2.17;;;21.90;79.80;;;;;;4585109;31;20071;-80
2023/10/10 14:10:21;;;;;;;3.60;2.03;;;22.00;79.60;;;;;;4618374;31;20112;-78
2023/10/10 14:12:50;;;;;;;3.20;1.80;;;21.90;79.60;;;;;;4582529;31;20068;-78
2023/10/10 14:15:54;;;;;;;4.15;1.80;;;21.90;79.70;;;;;;4593312;31;20060;-77
2023/10/10 14:18:26;;;;;;;1.90;1.30;;;21.80;79.80;;;;;;4582564;31;20648;-77
2023/10/10 14:20:53;;;;;;;2.67;1.70;;;21.80;80.00;;;;;;4583363;31;20109;-77
2023/10/10 14:23:27;;;;;;;1.55;1.25;;;21.70;80.20;;;;;;4599568;31;20182;-78
2023/10/10 14:28:41;;;;;;;4.05;1.70;;;21.60;80.70;;;;;;4631275;30;20558;-76
2023/10/10 14:31:12;;;;;;;2.28;1.50;;;21.50;80.80;;;;;;4647857;30;20106;-75
2023/10/10 14:33:41;;;;;;;3.13;1.85;;;21.40;80.90;;;;;;4656192;30;20034;-75
2023/10/10 14:36:13;;;;;;;4.90;1.48;;;21.40;81.00;;;;;;4692168;30;20057;-77
2023/10/10 14:38:44;;;;;;;2.75;1.50;;;21.40;80.90;;;;;;4675772;30;20058;-77
2023/10/10 14:41:16;;;;;;;2.83;1.80;;;21.40;80.90;;;;;;4703305;30;20044;-77
2023/10/10 14:43:52;;;;;;;3.33;1.77;;;21.50;80.90;;;;;;4710460;30;20049;-78
2023/10/10 14:46:21;;;;;;;3.42;1.65;;;21.50;80.70;;;;;;4697570;30;20425;-76
2023/10/10 14:49:00;;;;;;;3.33;1.83;;;21.60;80.60;;;;;;4686810;30;20111;-76
2023/10/10 14:51:33;;;;;;;4.90;1.98;;;21.60;80.40;;;;;;4681651;30;20053;-78
2023/10/10 14:54:06;;;;;;;3.38;1.92;;;21.70;80.20;;;;;;4662749;30;20593;-77
2023/10/10 14:56:36;;;;;;;2.80;1.70;;;21.80;80.00;;;;;;4677136;30;20053;-78
2023/10/10 14:59:42;;;;;;;2.83;1.70;;;21.80;79.60;;;;;;4682747;30;20133;-79
2023/10/10 15:06:06;;;;;;;3.92;1.65;;;21.90;79.20;;;;;;4579852;31;20060;-79
2023/10/10 15:08:44;;;;;;;2.30;1.58;;;22.00;79.00;;;;;;4562454;31;20068;-78
2023/10/10 15:11:41;;;;;;;2.80;1.60;;;22.10;78.80;;;;;;4523692;31;20217;-80
2023/10/10 15:14:32;;;;;;;2.88;1.48;;;22.00;78.60;;;;;;4565213;31;20128;-79
2023/10/10 15:16:58;;;;;;;1.92;1.40;;;21.90;78.60;;;;;;4568021;31;20063;-76
2023/10/10 15:19:25;;;;;;;2.55;1.52;;;21.90;78.80;;;;;;4579821;31;20131;-76
2023/10/10 15:21:50;;;;;;;3.38;1.77;;;21.90;78.80;;;;;;4580039;31;20064;-76
2023/10/10 15:24:17;;;;;;;3.47;1.55;;;21.80;78.80;;;;;;4566209;31;20056;-76
2023/10/10 15:26:56;;;;;;;3.50;1.60;;;21.80;78.70;;;;;;4578531;31;20044;-77
2023/10/10 15:29:22;;;;;;;3.03;1.63;;;21.80;78.60;;;;;;4554175;31;20580;-77
2023/10/10 15:31:50;;;;;;;2.72;1.50;;;21.80;78.50;;;;;;4569707;31;20199;-75
2023/10/10 15:34:15;;;;;;;2.65;1.50;;;21.80;78.40;;;;;;4565559;31;20599;-76
2023/10/10 15:36:44;;;;;;;2.85;1.30;;;21.90;78.40;;;;;;4578475;31;20161;-76
2023/10/10 15:39:10;;;;;;;2.28;1.45;;;21.70;78.30;;;;;;4585152;31;20036;-76
2023/10/10 15:41:37;;;;;;;1.70;1.20;;;21.70;78.40;;;;;;4622534;30;20287;-75
2023/10/10 15:44:08;;;;;;;2.38;1.25;;;21.60;78.40;;;;;;4735118;30;20477;-75
2023/10/10 15:46:37;;;;;;;3.53;1.30;;;21.60;78.50;;;;;;4735718;30;20041;-75
2023/10/10 15:49:09;;;;;;;2.00;1.33;;;21.50;78.50;;;;;;4736224;30;20036;-74
2023/10/10 15:51:38;;;;;;;2.20;1.40;;;21.60;78.60;;;;;;4735383;30;20071;-75
2023/10/10 15:54:09;;;;;;;2.72;1.40;;;21.50;78.50;;;;;;4720794;30;20136;-75
2023/10/10 15:56:36;;;;;;;1.80;1.30;;;21.50;78.50;;;;;;4737317;30;20045;-75
2023/10/10 15:59:01;;;;;;;2.05;1.13;;;21.40;78.50;;;;;;4737121;30;20053;-75
2023/10/10 16:01:29;;;;;;;1.80;1.23;;;21.30;78.60;;;;;;4720595;30;20040;-75
2023/10/10 16:04:20;;;;;;;1.80;1.30;;;21.30;78.60;;;;;;4721880;30;20052;-75
2023/10/10 16:06:47;;;;;;;1.85;1.38;;;21.30;78.60;;;;;;4735814;30;20048;-75
2023/10/10 16:09:19;;;;;;;1.67;1.13;;;21.30;78.80;;;;;;4718277;30;20048;-74
2023/10/10 16:11:52;;;;;;;1.77;1.15;;;21.20;78.80;;;;;;4735984;30;20049;-75